Time;durP1;ratioP1;P1;durP2;ratioP2;P2;SDS_P1;SDS_P2;PMS_P1;PMS_P2;Temp;Humidity;BMP_temperature;BMP_pressure;BME280_temperature;BME280_humidity;BME280_pressure;Samples;Min_cycle;Max_cycle;Signal;HPM_P1;HPM_P2
2022/06/30 00:00:01;;;;;;;5.10;1.83;;;27.10;42.90;;;;;;6162827;28;20035;-68
2022/06/30 00:03:02;;;;;;;6.15;2.00;;;27.00;42.90;;;;;;6162671;28;20365;-70
2022/06/30 00:06:04;;;;;;;1.88;1.40;;;27.00;43.10;;;;;;6179971;28;20463;-68
2022/06/30 00:09:05;;;;;;;2.92;1.60;;;27.00;43.30;;;;;;6159226;28;20042;-67
2022/06/30 00:12:07;;;;;;;5.28;1.70;;;26.90;43.40;;;;;;6180929;28;20483;-68
2022/06/30 00:15:08;;;;;;;4.70;2.20;;;26.90;43.50;;;;;;6179575;28;20516;-70
2022/06/30 00:18:10;;;;;;;3.35;2.00;;;26.80;43.60;;;;;;6167236;28;20428;-68
2022/06/30 00:21:11;;;;;;;2.85;1.60;;;26.80;43.60;;;;;;6184919;28;20364;-69
2022/06/30 00:24:12;;;;;;;4.47;2.00;;;26.70;43.70;;;;;;6185587;28;20052;-69
2022/06/30 00:27:15;;;;;;;2.42;1.80;;;26.70;43.90;;;;;;6169118;28;20165;-69
2022/06/30 00:30:17;;;;;;;3.08;1.90;;;26.70;44.10;;;;;;6169158;28;20041;-69
2022/06/30 00:33:18;;;;;;;2.55;1.77;;;26.60;44.30;;;;;;6178926;28;20023;-69
2022/06/30 00:36:20;;;;;;;4.40;1.88;;;26.60;44.60;;;;;;6179095;28;20031;-69
2022/06/30 00:39:21;;;;;;;3.13;1.73;;;26.60;44.70;;;;;;6175150;28;20038;-69
2022/06/30 00:42:22;;;;;;;2.97;1.60;;;26.50;44.60;;;;;;6161863;28;20039;-68
2022/06/30 00:45:23;;;;;;;2.25;1.75;;;26.50;44.70;;;;;;6161781;28;20041;-68
2022/06/30 00:48:25;;;;;;;5.93;2.20;;;26.50;44.80;;;;;;6168368;28;20082;-68
2022/06/30 00:51:26;;;;;;;5.18;2.25;;;26.50;44.80;;;;;;6170002;28;20531;-69
2022/06/30 00:54:28;;;;;;;6.95;2.15;;;26.50;45.00;;;;;;6178753;28;20027;-68
2022/06/30 00:57:30;;;;;;;7.50;2.30;;;26.50;45.20;;;;;;6178672;28;20470;-69
2022/06/30 01:00:41;;;;;;;3.25;1.85;;;26.50;45.40;;;;;;6145526;28;20038;-68
2022/06/30 01:03:43;;;;;;;7.78;1.90;;;26.40;45.50;;;;;;6196039;28;20034;-68
2022/06/30 01:06:46;;;;;;;2.05;1.67;;;26.40;45.60;;;;;;6184727;28;20034;-69
2022/06/30 01:13:07;;;;;;;2.75;1.80;;;26.40;45.80;;;;;;6201491;28;20093;-68
2022/06/30 01:16:11;;;;;;;3.80;1.80;;;26.40;45.90;;;;;;6201274;28;20037;-68
2022/06/30 01:19:15;;;;;;;3.08;1.70;;;26.40;45.90;;;;;;6165305;28;20412;-68
2022/06/30 01:22:16;;;;;;;3.72;1.88;;;26.30;46.00;;;;;;6160996;28;20081;-70
2022/06/30 01:25:17;;;;;;;4.85;1.83;;;26.30;46.20;;;;;;6153934;28;20031;-68
2022/06/30 01:28:19;;;;;;;7.03;2.20;;;26.30;46.40;;;;;;6161202;28;20042;-68
2022/06/30 01:31:20;;;;;;;4.82;1.88;;;26.20;46.50;;;;;;6160864;28;20035;-68
2022/06/30 01:34:22;;;;;;;4.53;1.70;;;26.20;46.50;;;;;;6165042;28;20018;-68
2022/06/30 01:37:24;;;;;;;3.03;1.92;;;26.20;46.60;;;;;;6160684;28;20053;-68
2022/06/30 01:40:28;;;;;;;5.15;2.20;;;26.20;47.50;;;;;;6200869;28;20074;-68
2022/06/30 01:43:29;;;;;;;6.78;2.05;;;26.20;47.10;;;;;;6183359;28;20035;-70
2022/06/30 01:46:30;;;;;;;5.07;1.95;;;26.20;47.20;;;;;;6192141;28;20031;-70
2022/06/30 01:49:31;;;;;;;2.65;1.95;;;26.20;47.20;;;;;;6192755;28;20062;-68
2022/06/30 01:52:32;;;;;;;2.65;2.35;;;26.10;47.20;;;;;;6200542;28;20333;-68
2022/06/30 01:55:34;;;;;;;4.70;2.05;;;26.10;47.20;;;;;;6200482;28;20101;-67
2022/06/30 01:58:35;;;;;;;6.32;2.67;;;26.10;47.30;;;;;;6168020;28;20456;-68
2022/06/30 02:01:36;;;;;;;3.47;2.13;;;26.10;47.60;;;;;;6200264;28;20041;-70
2022/06/30 02:04:51;;;;;;;2.63;1.80;;;26.10;47.90;;;;;;6200079;28;20061;-68
2022/06/30 02:07:53;;;;;;;3.53;1.80;;;26.10;47.90;;;;;;6182962;28;20035;-68
2022/06/30 02:10:54;;;;;;;3.42;2.03;;;26.10;48.10;;;;;;6183190;28;20037;-69
2022/06/30 02:13:55;;;;;;;3.80;2.20;;;26.00;48.30;;;;;;6182927;28;20355;-69
2022/06/30 02:16:56;;;;;;;4.15;1.98;;;26.00;48.30;;;;;;6192224;28;20113;-68
2022/06/30 02:19:57;;;;;;;3.15;2.10;;;26.10;48.40;;;;;;6178278;28;20058;-68
2022/06/30 02:23:00;;;;;;;2.42;2.22;;;26.00;48.60;;;;;;6199825;28;20069;-69
2022/06/30 02:26:01;;;;;;;3.72;1.83;;;26.00;48.80;;;;;;6167224;28;20045;-69
2022/06/30 02:29:03;;;;;;;5.10;1.90;;;26.00;48.80;;;;;;6199859;28;20599;-68
2022/06/30 02:32:05;;;;;;;5.75;2.00;;;26.00;48.90;;;;;;6199835;28;20474;-69
2022/06/30 02:35:07;;;;;;;3.80;2.20;;;25.90;48.90;;;;;;6166782;28;20027;-68
2022/06/30 02:38:11;;;;;;;5.30;2.03;;;25.80;48.90;;;;;;6148955;28;20356;-68
2022/06/30 02:41:12;;;;;;;4.60;2.20;;;25.80;49.10;;;;;;6182668;28;20407;-69
2022/06/30 02:44:13;;;;;;;12.45;2.33;;;25.70;49.20;;;;;;6181986;28;20352;-69
2022/06/30 02:47:14;;;;;;;5.45;2.50;;;25.80;49.30;;;;;;6182550;28;20026;-69
2022/06/30 02:50:15;;;;;;;4.03;2.30;;;25.70;49.20;;;;;;6182352;28;20031;-69
2022/06/30 02:53:16;;;;;;;5.00;2.50;;;25.70;49.20;;;;;;6166425;28;20034;-69
2022/06/30 02:56:17;;;;;;;5.38;2.05;;;25.70;49.30;;;;;;6182353;28;20384;-68
2022/06/30 02:59:18;;;;;;;5.53;2.22;;;25.60;49.30;;;;;;6155445;28;20468;-68
2022/06/30 03:02:19;;;;;;;7.32;2.15;;;25.50;49.40;;;;;;6176345;28;20026;-70
2022/06/30 03:05:21;;;;;;;3.47;2.15;;;25.40;49.70;;;;;;6159117;28;20050;-68
2022/06/30 03:08:22;;;;;;;3.92;2.22;;;25.20;49.90;;;;;;6166136;28;20109;-70
2022/06/30 03:11:24;;;;;;;5.60;2.83;;;25.10;50.10;;;;;;6172405;28;20345;-68
2022/06/30 03:14:25;;;;;;;3.50;1.95;;;25.00;50.20;;;;;;6152289;28;20033;-69
2022/06/30 03:17:26;;;;;;;3.83;2.15;;;24.90;50.10;;;;;;6166072;28;20038;-68
2022/06/30 03:20:27;;;;;;;5.78;1.98;;;24.90;49.90;;;;;;6199191;28;20027;-68
2022/06/30 03:23:28;;;;;;;4.38;1.92;;;24.80;49.60;;;;;;6197124;28;20452;-68
2022/06/30 03:26:29;;;;;;;8.38;1.85;;;24.80;49.50;;;;;;6195981;28;20045;-68
2022/06/30 03:29:30;;;;;;;2.15;1.58;;;24.70;49.30;;;;;;6175266;28;20117;-68
2022/06/30 03:32:31;;;;;;;5.53;1.80;;;24.60;49.30;;;;;;6181898;28;20022;-68
2022/06/30 03:35:32;;;;;;;6.55;1.40;;;24.50;49.30;;;;;;6160602;28;20030;-68
2022/06/30 03:38:34;;;;;;;3.03;1.80;;;24.50;49.30;;;;;;6167480;28;20045;-69
2022/06/30 03:41:35;;;;;;;6.07;1.90;;;24.50;49.30;;;;;;6181875;28;20140;-68
2022/06/30 03:44:36;;;;;;;5.43;1.60;;;24.50;49.30;;;;;;6165655;28;20042;-68
2022/06/30 03:47:37;;;;;;;2.42;1.70;;;24.40;49.10;;;;;;6198855;28;20035;-68
2022/06/30 03:50:38;;;;;;;2.03;1.65;;;24.40;49.00;;;;;;6182798;28;20050;-68
2022/06/30 03:53:39;;;;;;;10.63;1.80;;;24.40;48.90;;;;;;6183182;28;20572;-68
2022/06/30 03:56:40;;;;;;;10.00;1.65;;;24.40;48.60;;;;;;6162963;28;20125;-68
2022/06/30 03:59:41;;;;;;;5.95;1.70;;;24.30;48.40;;;;;;6146766;28;20033;-68
2022/06/30 04:02:42;;;;;;;5.68;1.60;;;24.40;48.30;;;;;;6179948;28;20030;-68
2022/06/30 04:05:43;;;;;;;2.70;1.40;;;24.40;48.30;;;;;;6179740;28;20117;-68
2022/06/30 04:08:45;;;;;;;5.32;2.00;;;24.40;48.30;;;;;;6172695;28;20100;-68
2022/06/30 04:11:46;;;;;;;5.60;1.55;;;24.40;48.30;;;;;;6166344;28;20057;-68
2022/06/30 04:14:47;;;;;;;3.38;1.45;;;24.40;48.30;;;;;;6185991;28;20054;-68
2022/06/30 04:17:48;;;;;;;5.45;1.67;;;24.40;48.40;;;;;;6181895;28;20027;-68
2022/06/30 04:20:49;;;;;;;3.92;1.55;;;24.30;48.60;;;;;;6202259;28;20034;-68
2022/06/30 04:23:50;;;;;;;3.55;1.55;;;24.30;48.90;;;;;;6185281;28;20132;-68
2022/06/30 04:26:51;;;;;;;2.55;1.65;;;24.20;49.00;;;;;;6202833;28;20034;-69
2022/06/30 04:29:52;;;;;;;4.50;1.60;;;24.20;49.00;;;;;;6202227;28;20033;-68
2022/06/30 04:32:53;;;;;;;3.88;1.75;;;24.20;49.00;;;;;;6202453;28;20033;-68
2022/06/30 04:35:54;;;;;;;1.90;1.40;;;24.20;48.90;;;;;;6184665;28;20105;-68
2022/06/30 04:38:55;;;;;;;4.63;1.60;;;24.20;48.90;;;;;;6195322;28;20451;-68
2022/06/30 04:41:56;;;;;;;1.50;1.20;;;24.20;48.90;;;;;;6184951;28;20046;-68
2022/06/30 04:44:57;;;;;;;3.67;1.83;;;24.30;48.90;;;;;;6184864;28;20077;-69
2022/06/30 04:47:58;;;;;;;7.97;1.98;;;24.30;48.90;;;;;;6177439;28;20030;-67
2022/06/30 04:51:00;;;;;;;10.52;1.52;;;24.30;48.80;;;;;;6184433;28;20041;-68
2022/06/30 04:54:01;;;;;;;6.13;1.52;;;24.40;48.70;;;;;;6175814;28;20465;-68
2022/06/30 04:57:02;;;;;;;7.53;1.52;;;24.50;48.60;;;;;;6166089;28;20030;-68
2022/06/30 05:00:06;;;;;;;7.45;1.67;;;24.50;48.60;;;;;;6200748;28;20038;-68
2022/06/30 05:03:07;;;;;;;2.72;1.92;;;24.50;48.60;;;;;;6184393;28;20462;-68
2022/06/30 05:06:08;;;;;;;2.85;1.52;;;24.50;48.40;;;;;;6184038;28;20487;-68
2022/06/30 05:09:09;;;;;;;3.08;1.88;;;24.60;48.30;;;;;;6184222;28;20037;-68
2022/06/30 05:12:10;;;;;;;3.05;1.83;;;24.70;48.20;;;;;;6184333;28;20030;-68
2022/06/30 05:15:11;;;;;;;7.78;1.77;;;24.70;48.20;;;;;;6184117;28;20034;-68
2022/06/30 05:18:13;;;;;;;6.72;1.70;;;24.70;48.30;;;;;;6168372;28;20103;-67
2022/06/30 05:21:14;;;;;;;8.45;1.67;;;24.70;48.20;;;;;;6183818;28;20034;-69
2022/06/30 05:27:35;;;;;;;5.35;1.63;;;24.70;48.10;;;;;;6201132;28;20120;-69
2022/06/30 05:30:36;;;;;;;3.78;1.95;;;24.80;48.00;;;;;;6177281;28;20042;-69
2022/06/30 05:33:37;;;;;;;19.42;2.22;;;24.90;47.90;;;;;;6167178;28;20086;-69
2022/06/30 05:36:38;;;;;;;5.25;2.45;;;25.00;47.90;;;;;;6193772;28;20130;-69
2022/06/30 05:39:39;;;;;;;5.47;2.42;;;25.00;47.80;;;;;;6183411;28;20509;-68
2022/06/30 05:42:40;;;;;;;3.40;2.08;;;25.10;47.80;;;;;;6183476;28;20132;-68
2022/06/30 05:45:42;;;;;;;2.90;1.65;;;25.10;47.60;;;;;;6183090;28;20097;-69
2022/06/30 05:48:43;;;;;;;4.60;2.08;;;25.20;47.50;;;;;;6183386;28;20035;-68
2022/06/30 05:51:44;;;;;;;3.53;2.08;;;25.20;47.30;;;;;;6179676;28;20363;-69
2022/06/30 05:54:45;;;;;;;3.88;2.40;;;25.30;47.20;;;;;;6197610;28;20510;-70
2022/06/30 05:57:54;;;;;;;3.35;1.88;;;25.30;47.20;;;;;;6160060;28;20035;-69
2022/06/30 06:00:55;;;;;;;7.45;2.70;;;25.40;47.10;;;;;;6160147;28;20456;-68
2022/06/30 06:03:56;;;;;;;7.85;2.60;;;25.40;46.90;;;;;;6159597;28;20037;-68
2022/06/30 06:06:57;;;;;;;4.95;2.47;;;25.50;46.80;;;;;;6180757;28;20045;-69
2022/06/30 06:09:58;;;;;;;9.40;2.05;;;25.50;47.00;;;;;;6147562;28;20360;-69
2022/06/30 06:13:00;;;;;;;4.65;2.38;;;25.50;46.80;;;;;;6192717;28;20034;-68
2022/06/30 06:16:01;;;;;;;7.95;3.25;;;25.60;46.80;;;;;;6199526;28;20530;-69
2022/06/30 06:19:02;;;;;;;6.32;2.95;;;25.70;47.00;;;;;;6165941;28;20105;-69
2022/06/30 06:22:03;;;;;;;10.20;2.95;;;25.70;47.00;;;;;;6172146;28;20061;-70
2022/06/30 06:25:05;;;;;;;7.13;2.33;;;25.70;47.00;;;;;;6184274;28;20448;-69
2022/06/30 06:31:26;;;;;;;4.65;2.50;;;25.70;47.30;;;;;;6176005;28;20038;-69
2022/06/30 06:34:27;;;;;;;3.90;2.38;;;25.60;47.30;;;;;;6179187;28;20033;-70
2022/06/30 06:37:28;;;;;;;6.22;2.60;;;25.60;47.40;;;;;;6159938;28;20033;-69
2022/06/30 06:40:30;;;;;;;7.03;2.50;;;25.70;47.40;;;;;;6199219;28;20106;-69
2022/06/30 06:43:31;;;;;;;6.40;2.90;;;25.70;47.40;;;;;;6176289;28;20195;-69
2022/06/30 06:46:32;;;;;;;11.25;2.53;;;25.80;47.40;;;;;;6142816;28;20063;-69
2022/06/30 06:49:34;;;;;;;7.88;2.63;;;25.90;47.40;;;;;;6162765;28;20045;-69
2022/06/30 06:52:35;;;;;;;4.70;2.67;;;25.90;47.30;;;;;;6169948;28;20033;-70
2022/06/30 06:55:36;;;;;;;2.75;1.92;;;26.00;47.20;;;;;;6165042;28;20039;-70
2022/06/30 06:58:38;;;;;;;7.15;3.00;;;26.10;47.00;;;;;;6175921;28;20122;-69
2022/06/30 07:01:39;;;;;;;9.77;3.05;;;26.20;46.80;;;;;;6175055;28;20023;-70
2022/06/30 07:04:40;;;;;;;2.95;2.05;;;26.40;46.60;;;;;;6163209;28;20380;-68
2022/06/30 07:07:41;;;;;;;6.10;2.67;;;26.50;46.50;;;;;;6161966;28;20035;-69
2022/06/30 07:10:42;;;;;;;4.90;2.70;;;26.60;46.20;;;;;;6181778;28;20404;-69
2022/06/30 07:13:43;;;;;;;4.00;2.75;;;26.70;46.20;;;;;;6199047;28;20037;-70
2022/06/30 07:16:44;;;;;;;5.07;2.72;;;26.80;46.00;;;;;;6181634;28;20285;-69
2022/06/30 07:19:45;;;;;;;3.38;2.47;;;26.80;45.80;;;;;;6181710;28;20034;-68
2022/06/30 07:22:46;;;;;;;9.73;2.58;;;26.90;45.80;;;;;;6181399;28;20060;-68
2022/06/30 07:25:48;;;;;;;3.97;2.20;;;27.00;45.80;;;;;;6182130;28;20027;-69
2022/06/30 07:28:49;;;;;;;4.55;2.25;;;27.00;46.50;;;;;;6198898;28;20023;-69
2022/06/30 07:31:50;;;;;;;4.43;2.20;;;27.10;46.10;;;;;;6163050;28;20057;-69
2022/06/30 07:34:51;;;;;;;8.00;2.60;;;27.10;46.10;;;;;;6185268;28;20093;-69
2022/06/30 07:37:52;;;;;;;3.72;2.33;;;27.20;46.20;;;;;;6161092;28;20043;-69
2022/06/30 07:40:53;;;;;;;6.28;2.20;;;27.30;46.30;;;;;;6198169;28;20084;-69
2022/06/30 07:43:54;;;;;;;8.13;2.33;;;27.30;46.40;;;;;;6186057;28;20467;-69
2022/06/30 07:46:55;;;;;;;5.20;2.38;;;27.40;46.20;;;;;;6185571;28;20404;-70
2022/06/30 07:49:57;;;;;;;8.93;2.40;;;27.50;46.00;;;;;;6169384;28;20117;-69
2022/06/30 07:52:59;;;;;;;6.28;2.33;;;27.70;45.70;;;;;;6185543;28;20038;-69
2022/06/30 07:56:00;;;;;;;5.18;2.17;;;27.90;45.30;;;;;;6203044;28;20419;-68
2022/06/30 07:59:01;;;;;;;3.75;2.00;;;28.00;44.90;;;;;;6169206;28;20038;-69
2022/06/30 08:02:02;;;;;;;5.65;2.20;;;28.20;44.70;;;;;;6185113;28;20438;-70
2022/06/30 08:05:04;;;;;;;9.80;2.20;;;28.30;44.30;;;;;;6186562;28;20085;-69
2022/06/30 08:08:05;;;;;;;5.70;2.88;;;28.40;44.00;;;;;;6166770;28;20034;-69
2022/06/30 08:11:06;;;;;;;4.20;2.17;;;28.50;44.00;;;;;;6185363;28;20026;-69
2022/06/30 08:14:07;;;;;;;6.35;2.60;;;28.60;44.00;;;;;;6185162;28;20113;-69
2022/06/30 08:17:08;;;;;;;3.67;2.05;;;28.80;43.90;;;;;;6148703;28;20126;-69
2022/06/30 08:20:09;;;;;;;4.40;2.40;;;28.90;43.40;;;;;;6161886;28;20401;-70
2022/06/30 08:23:10;;;;;;;18.40;2.47;;;29.00;43.20;;;;;;6194509;28;20038;-69
2022/06/30 08:26:12;;;;;;;4.57;2.63;;;29.00;43.20;;;;;;6184907;28;20464;-69
2022/06/30 08:29:13;;;;;;;6.05;2.28;;;29.00;43.30;;;;;;6184198;28;20080;-69
2022/06/30 08:32:14;;;;;;;7.22;2.50;;;29.10;43.30;;;;;;6178219;28;20382;-69
2022/06/30 08:35:15;;;;;;;5.00;2.20;;;29.20;43.20;;;;;;6184210;28;20041;-69
2022/06/30 08:38:16;;;;;;;5.72;2.67;;;29.30;43.20;;;;;;6200785;28;20432;-69
2022/06/30 08:44:38;;;;;;;7.53;3.60;;;29.40;43.10;;;;;;6177982;28;20407;-70
2022/06/30 08:47:40;;;;;;;9.48;3.90;;;29.50;43.20;;;;;;6161378;28;20023;-69
2022/06/30 08:50:45;;;;;;;4.20;2.95;;;29.70;43.00;;;;;;6183319;28;20533;-68
2022/06/30 08:54:00;;;;;;;8.15;2.50;;;30.00;42.70;;;;;;6200803;28;20030;-69
2022/06/30 08:57:02;;;;;;;10.57;3.35;;;30.20;42.20;;;;;;6168169;28;20102;-69
2022/06/30 09:00:04;;;;;;;6.80;3.13;;;30.20;42.10;;;;;;6177790;28;20034;-69
2022/06/30 09:03:05;;;;;;;3.40;2.45;;;30.30;42.10;;;;;;6160927;28;20046;-69
2022/06/30 09:06:06;;;;;;;5.82;3.45;;;30.50;41.80;;;;;;6160755;28;20129;-71
2022/06/30 09:09:07;;;;;;;15.20;5.30;;;30.60;41.30;;;;;;6173262;28;20026;-68
2022/06/30 09:12:16;;;;;;;3.50;2.42;;;30.80;41.10;;;;;;6183679;28;20038;-70
2022/06/30 09:15:17;;;;;;;8.60;3.30;;;31.10;40.40;;;;;;6183708;28;20371;-69
2022/06/30 09:18:22;;;;;;;14.02;6.93;;;31.30;40.00;;;;;;6183477;28;20298;-69
2022/06/30 09:21:26;;;;;;;8.60;5.10;;;31.40;40.20;;;;;;6171764;28;20034;-68
2022/06/30 09:24:27;;;;;;;6.85;3.55;;;31.50;39.40;;;;;;6182876;28;20091;-69
2022/06/30 09:27:31;;;;;;;12.05;4.65;;;31.70;39.20;;;;;;6172282;28;20037;-70
2022/06/30 09:30:32;;;;;;;4.50;2.45;;;31.90;38.90;;;;;;6159649;28;20079;-69
2022/06/30 09:33:35;;;;;;;5.70;2.47;;;31.90;38.40;;;;;;6128386;28;20041;-70
2022/06/30 09:36:36;;;;;;;6.13;3.60;;;31.90;38.30;;;;;;6177192;28;20446;-68
2022/06/30 09:39:42;;;;;;;14.18;6.80;;;31.90;38.30;;;;;;6187816;28;20031;-69
2022/06/30 09:42:47;;;;;;;10.65;5.68;;;31.90;38.20;;;;;;6170930;28;20030;-69
2022/06/30 09:45:48;;;;;;;5.10;3.92;;;32.00;37.90;;;;;;6143959;28;20031;-69
2022/06/30 09:48:50;;;;;;;8.02;4.50;;;32.20;37.50;;;;;;6159911;28;20045;-69
2022/06/30 09:51:52;;;;;;;13.23;7.47;;;32.30;37.10;;;;;;6181326;28;20031;-69
2022/06/30 09:55:02;;;;;;;15.02;5.93;;;32.40;37.10;;;;;;6178837;28;20418;-69
2022/06/30 09:58:03;;;;;;;7.40;3.22;;;32.40;36.40;;;;;;6182600;28;20022;-69
2022/06/30 10:01:04;;;;;;;3.47;2.30;;;32.50;36.30;;;;;;6199592;28;20056;-69
2022/06/30 10:04:08;;;;;;;7.97;2.33;;;32.50;36.00;;;;;;6199068;28;20030;-70
2022/06/30 10:07:09;;;;;;;6.15;2.08;;;32.70;35.80;;;;;;6164917;28;20035;-69
2022/06/30 10:10:13;;;;;;;3.45;2.42;;;32.70;35.30;;;;;;6181569;28;20089;-69
2022/06/30 10:13:16;;;;;;;14.75;2.13;;;32.70;35.10;;;;;;6175961;28;20031;-69
2022/06/30 10:16:20;;;;;;;6.95;2.40;;;32.80;35.10;;;;;;6158765;28;20054;-69
2022/06/30 10:19:21;;;;;;;8.25;2.20;;;32.80;35.20;;;;;;6158706;28;20030;-69
2022/06/30 10:22:25;;;;;;;5.68;2.40;;;32.90;35.30;;;;;;6151768;28;20053;-70
2022/06/30 10:25:26;;;;;;;5.43;2.63;;;32.90;35.30;;;;;;6181496;28;20072;-70
2022/06/30 10:28:27;;;;;;;13.70;2.42;;;33.00;35.30;;;;;;6181712;28;20467;-70
2022/06/30 10:31:46;;;;;;;7.47;2.78;;;33.00;35.10;;;;;;6183825;28;20479;-69
2022/06/30 10:34:55;;;;;;;;;;;33.00;35.10;;;;;;6176350;28;20058;-69
2022/06/30 10:38:05;;;;;;;;;;;33.20;35.00;;;;;;6179699;28;19910;-70
2022/06/30 10:41:13;;;;;;;3.42;2.03;;;33.30;34.80;;;;;;6160394;28;19925;-71
2022/06/30 10:44:19;;;;;;;3.33;2.15;;;33.30;34.50;;;;;;6158947;28;20038;-69
2022/06/30 10:47:20;;;;;;;3.15;2.10;;;33.20;34.30;;;;;;6158220;28;20492;-70
2022/06/30 10:50:32;;;;;;;5.10;2.20;;;33.20;34.20;;;;;;6176311;28;20070;-70
2022/06/30 10:53:36;;;;;;;3.80;2.25;;;33.20;34.30;;;;;;6181940;28;20546;-69
2022/06/30 10:56:50;;;;;;;2.83;1.73;;;33.20;34.30;;;;;;6158990;28;20062;-69
2022/06/30 10:59:51;;;;;;;2.97;2.00;;;33.20;34.10;;;;;;6142877;28;20118;-69
2022/06/30 11:02:52;;;;;;;8.38;1.70;;;33.20;33.60;;;;;;6142857;28;20046;-69
2022/06/30 11:05:53;;;;;;;9.18;2.08;;;33.30;33.40;;;;;;6180494;28;20053;-71
2022/06/30 11:09:00;;;;;;;6.50;1.80;;;33.40;33.00;;;;;;6199414;28;20026;-71
2022/06/30 11:12:01;;;;;;;1.95;1.40;;;34.10;31.80;;;;;;6202462;28;20029;-70
2022/06/30 11:15:03;;;;;;;8.02;1.70;;;35.10;30.30;;;;;;6163415;28;20023;-70
2022/06/30 11:18:05;;;;;;;4.05;1.60;;;36.00;29.20;;;;;;6180100;28;20027;-71
2022/06/30 11:21:07;;;;;;;6.40;2.05;;;36.70;28.20;;;;;;6163023;28;20452;-70
2022/06/30 11:24:10;;;;;;;4.55;1.45;;;37.00;27.60;;;;;;6169935;28;20066;-71
2022/06/30 11:27:26;;;;;;;3.05;1.50;;;37.10;27.30;;;;;;6185712;28;20404;-69
2022/06/30 11:30:35;;;;;;;6.55;2.63;;;37.40;27.00;;;;;;6185089;28;20548;-71
2022/06/30 11:33:58;;;;;;;4.78;1.88;;;37.60;26.90;;;;;;6163559;28;20058;-70
2022/06/30 11:36:59;;;;;;;10.57;1.60;;;37.60;26.90;;;;;;6162768;28;20088;-71
2022/06/30 11:40:11;;;;;;;4.70;1.77;;;37.70;26.90;;;;;;6199504;28;20460;-70
2022/06/30 11:43:21;;;;;;;6.68;1.48;;;37.90;26.80;;;;;;6168119;28;20121;-69
2022/06/30 11:46:22;;;;;;;3.25;1.73;;;37.80;26.70;;;;;;6164892;28;20031;-70
2022/06/30 11:49:27;;;;;;;3.83;1.25;;;37.70;27.00;;;;;;6179727;28;20035;-70
2022/06/30 11:52:37;;;;;;;2.28;1.50;;;37.80;27.10;;;;;;6172771;28;20423;-70
2022/06/30 11:55:42;;;;;;;1.92;1.48;;;38.00;27.00;;;;;;6185951;28;20080;-69
2022/06/30 11:58:45;;;;;;;5.20;1.35;;;38.20;27.10;;;;;;6169287;28;20072;-71
2022/06/30 12:02:06;;;;;;;5.57;1.60;;;38.40;26.80;;;;;;6168598;28;20046;-69
2022/06/30 12:05:09;;;;;;;3.88;1.60;;;38.50;26.50;;;;;;6166937;28;20466;-70
2022/06/30 12:08:13;;;;;;;1.45;1.27;;;38.50;26.50;;;;;;6202292;28;20337;-70
2022/06/30 12:11:14;;;;;;;3.38;1.58;;;38.60;26.70;;;;;;6168923;28;20041;-71
2022/06/30 12:14:16;;;;;;;4.80;1.95;;;38.50;26.80;;;;;;6185148;28;20053;-69
2022/06/30 12:17:17;;;;;;;7.22;1.55;;;38.20;27.00;;;;;;6179498;28;20365;-69
2022/06/30 12:20:19;;;;;;;2.53;1.38;;;37.90;27.50;;;;;;6161943;28;20073;-70
2022/06/30 12:23:20;;;;;;;4.72;1.55;;;37.70;27.60;;;;;;6195709;28;20046;-70
2022/06/30 12:26:22;;;;;;;4.65;1.50;;;37.40;27.70;;;;;;6201767;28;20341;-68
2022/06/30 12:29:26;;;;;;;2.83;1.52;;;37.20;27.80;;;;;;6181668;28;20057;-70
2022/06/30 12:32:28;;;;;;;6.50;1.58;;;37.10;27.60;;;;;;6161350;28;20459;-68
2022/06/30 12:35:32;;;;;;;1.42;1.20;;;37.30;27.50;;;;;;6178406;28;20039;-69
2022/06/30 12:38:34;;;;;;;5.35;1.52;;;37.40;27.50;;;;;;6169283;28;20026;-69
2022/06/30 12:41:35;;;;;;;3.22;1.38;;;37.40;27.40;;;;;;6163437;28;20078;-69
2022/06/30 12:44:40;;;;;;;1.70;1.45;;;37.50;27.50;;;;;;6178372;28;20407;-69
2022/06/30 12:47:44;;;;;;;3.55;1.88;;;37.30;28.00;;;;;;6161020;28;20031;-70
2022/06/30 12:50:46;;;;;;;4.63;1.63;;;37.00;27.90;;;;;;6172693;28;20374;-70
2022/06/30 12:53:48;;;;;;;5.90;1.80;;;36.80;28.00;;;;;;6167350;28;20411;-69
2022/06/30 12:56:52;;;;;;;7.25;1.80;;;36.70;28.10;;;;;;6201141;28;20093;-69
2022/06/30 12:59:55;;;;;;;5.70;1.88;;;36.40;28.40;;;;;;6201348;28;20121;-70
2022/06/30 13:02:56;;;;;;;15.80;1.98;;;36.10;28.80;;;;;;6200574;28;20647;-70
2022/06/30 13:05:59;;;;;;;6.35;1.85;;;35.90;29.20;;;;;;6183636;28;20046;-69
2022/06/30 13:09:05;;;;;;;5.70;1.70;;;35.50;29.60;;;;;;6171921;28;20431;-68
2022/06/30 13:12:06;;;;;;;4.78;1.80;;;35.20;30.00;;;;;;6161037;28;20037;-70
2022/06/30 13:15:08;;;;;;;6.78;1.95;;;35.30;30.20;;;;;;6184131;28;20463;-68
2022/06/30 13:18:09;;;;;;;4.35;1.80;;;35.50;30.20;;;;;;6177434;28;20022;-70
2022/06/30 13:21:10;;;;;;;10.52;1.73;;;35.70;30.10;;;;;;6180024;28;20037;-69
2022/06/30 13:24:11;;;;;;;8.95;1.70;;;35.60;30.00;;;;;;6183245;28;20042;-69
2022/06/30 13:27:12;;;;;;;9.50;1.90;;;35.50;30.20;;;;;;6183038;28;20049;-69
2022/06/30 13:30:13;;;;;;;3.60;1.83;;;35.50;30.30;;;;;;6183093;28;20349;-69
2022/06/30 13:33:14;;;;;;;3.13;1.65;;;35.70;31.00;;;;;;6182229;28;20033;-69
2022/06/30 13:36:18;;;;;;;5.20;1.70;;;35.70;30.50;;;;;;6162174;28;20186;-69
2022/06/30 13:39:19;;;;;;;4.60;1.77;;;35.50;30.80;;;;;;6177424;28;20034;-69
2022/06/30 13:42:21;;;;;;;2.10;1.73;;;35.70;30.90;;;;;;6182657;28;20487;-69
2022/06/30 13:45:22;;;;;;;6.47;1.92;;;35.70;30.90;;;;;;6158507;28;20110;-69
2022/06/30 13:48:25;;;;;;;9.05;2.15;;;35.80;30.60;;;;;;6143128;28;20050;-70
2022/06/30 13:51:27;;;;;;;9.23;2.90;;;36.20;30.20;;;;;;6161921;28;20034;-69
2022/06/30 13:54:28;;;;;;;6.20;1.88;;;36.30;29.90;;;;;;6148383;28;20034;-70
2022/06/30 13:57:29;;;;;;;5.50;2.22;;;36.90;29.50;;;;;;6159682;28;20038;-70
2022/06/30 14:00:30;;;;;;;12.52;2.38;;;37.20;29.10;;;;;;6166353;28;20035;-69
2022/06/30 14:03:32;;;;;;;4.70;2.28;;;37.50;28.80;;;;;;6182041;28;20097;-69
2022/06/30 14:06:33;;;;;;;8.93;2.00;;;37.70;28.50;;;;;;6199429;28;20083;-69
2022/06/30 14:09:34;;;;;;;7.53;2.17;;;38.20;28.10;;;;;;6170223;28;20158;-69
2022/06/30 14:12:36;;;;;;;4.93;2.40;;;38.70;27.60;;;;;;6175741;28;20050;-70
2022/06/30 14:15:37;;;;;;;5.65;2.17;;;39.00;27.30;;;;;;6158846;28;20045;-70
2022/06/30 14:18:38;;;;;;;2.47;1.90;;;38.80;27.20;;;;;;6175911;28;20034;-70
2022/06/30 14:21:39;;;;;;;5.97;2.03;;;38.40;27.60;;;;;;6185246;28;20042;-70
2022/06/30 14:24:40;;;;;;;3.20;1.90;;;38.70;27.50;;;;;;6194093;28;20041;-70
2022/06/30 14:27:41;;;;;;;7.80;2.45;;;39.30;26.90;;;;;;6180793;28;20038;-70
2022/06/30 14:30:43;;;;;;;6.43;1.67;;;39.70;26.00;;;;;;6159001;28;20073;-70
2022/06/30 14:33:44;;;;;;;4.03;2.08;;;39.30;26.40;;;;;;6163657;28;20030;-71
2022/06/30 14:36:45;;;;;;;12.50;1.90;;;39.60;26.40;;;;;;6165486;28;20065;-72
2022/06/30 14:39:46;;;;;;;9.80;2.30;;;40.70;25.50;;;;;;6175136;28;20097;-69
2022/06/30 14:42:48;;;;;;;4.60;1.90;;;41.20;24.80;;;;;;6178186;28;20112;-69
2022/06/30 14:45:50;;;;;;;3.53;2.03;;;40.80;25.00;;;;;;6158620;28;20091;-69
2022/06/30 14:48:52;;;;;;;4.90;1.90;;;39.90;25.70;;;;;;6176697;28;20031;-69
2022/06/30 14:51:53;;;;;;;3.78;2.08;;;38.80;26.50;;;;;;6175806;28;20337;-69
2022/06/30 14:54:54;;;;;;;5.07;2.30;;;37.80;27.50;;;;;;6159018;28;20050;-69
2022/06/30 14:57:58;;;;;;;4.32;2.42;;;37.00;28.30;;;;;;6161028;28;20077;-69
2022/06/30 15:00:59;;;;;;;9.88;2.20;;;36.30;29.00;;;;;;6197964;28;20053;-70
2022/06/30 15:04:00;;;;;;;3.47;1.95;;;36.00;29.60;;;;;;6180711;28;20396;-69
2022/06/30 15:07:06;;;;;;;7.10;2.60;;;35.60;30.00;;;;;;6181568;28;20038;-69
2022/06/30 15:10:09;;;;;;;6.15;2.60;;;35.40;30.40;;;;;;6195548;28;20069;-70
2022/06/30 15:13:10;;;;;;;6.03;3.13;;;35.20;30.90;;;;;;6164437;28;20034;-69
2022/06/30 15:16:11;;;;;;;10.48;3.13;;;35.10;31.20;;;;;;6180546;28;20101;-69
2022/06/30 15:19:12;;;;;;;7.28;3.15;;;35.20;31.50;;;;;;6169016;28;20046;-70
2022/06/30 15:25:33;;;;;;;6.18;2.40;;;35.50;30.50;;;;;;6157985;28;20050;-70
2022/06/30 15:28:35;;;;;;;4.50;2.65;;;35.70;30.00;;;;;;6141929;28;20372;-70
2022/06/30 15:31:42;;;;;;;5.20;2.25;;;35.80;30.00;;;;;;6157602;28;20031;-70
2022/06/30 15:34:44;;;;;;;14.98;2.90;;;36.10;29.90;;;;;;6188681;28;20054;-70
2022/06/30 15:37:45;;;;;;;13.95;3.05;;;36.20;29.80;;;;;;6179784;28;20440;-69
2022/06/30 15:40:46;;;;;;;10.38;2.22;;;36.00;29.90;;;;;;6177122;28;20081;-69
2022/06/30 15:43:48;;;;;;;55.65;4.88;;;35.80;30.30;;;;;;6157579;28;20031;-69
2022/06/30 15:46:49;;;;;;;26.98;3.47;;;35.80;30.50;;;;;;6173906;28;20038;-69
2022/06/30 15:49:50;;;;;;;16.00;3.67;;;36.00;30.40;;;;;;6199562;28;20356;-69
2022/06/30 15:52:51;;;;;;;12.65;2.80;;;36.40;30.20;;;;;;6185770;28;20030;-69
2022/06/30 15:55:52;;;;;;;15.82;2.72;;;36.70;29.90;;;;;;6202558;28;20088;-69
2022/06/30 15:58:54;;;;;;;10.48;2.55;;;36.60;29.90;;;;;;6181939;28;20352;-69
2022/06/30 16:01:55;;;;;;;8.60;2.40;;;36.40;30.10;;;;;;6164289;28;20061;-69